Terminal Aerodrome Forecast
Issued by NWS Blacksburg, VA

Home | Current Version | Previous Version | Text Only | Print | Product List | Glossary On
Versions: 1 2 3 4 5 6 7 8 9 10 11 12 13 14
000
FTUS41 KRNK 251720
TAFROA
TAF
KROA 251720Z 2518/2618 21008KT P6SM SKC
     FM252100 23010KT P6SM SCT060
     FM260300 27006KT P6SM SKC
     FM260700 30010G18KT P6SM SCT050
     FM261500 29015G25KT P6SM SKC=

USA.gov is the U.S. government's official web portal to all federal, state and local government web resources and services.